sensor_id;sensor_type;location;lat;lon;timestamp;temperature;humidity
254;DHT22;590;48.772;8.846;2022-09-27T00:02:14;11.70;99.90
254;DHT22;590;48.772;8.846;2022-09-27T00:04:43;11.70;99.90
254;DHT22;590;48.772;8.846;2022-09-27T00:07:12;11.70;99.90
254;DHT22;590;48.772;8.846;2022-09-27T00:09:40;11.70;99.90
254;DHT22;590;48.772;8.846;2022-09-27T00:12:09;11.70;99.90
254;DHT22;590;48.772;8.846;2022-09-27T00:14:37;11.70;99.90
254;DHT22;590;48.772;8.846;2022-09-27T00:17:08;11.70;99.90
254;DHT22;590;48.772;8.846;2022-09-27T00:19:36;11.70;99.90
254;DHT22;590;48.772;8.846;2022-09-27T00:22:04;11.70;99.90
254;DHT22;590;48.772;8.846;2022-09-27T00:24:32;11.70;99.90
254;DHT22;590;48.772;8.846;2022-09-27T00:27:01;11.70;99.90
254;DHT22;590;48.772;8.846;2022-09-27T00:29:30;11.70;99.90
254;DHT22;590;48.772;8.846;2022-09-27T00:31:58;11.70;99.90
254;DHT22;590;48.772;8.846;2022-09-27T00:34:26;11.70;99.90
254;DHT22;590;48.772;8.846;2022-09-27T00:36:54;11.70;99.90
254;DHT22;590;48.772;8.846;2022-09-27T00:39:22;11.70;99.90
254;DHT22;590;48.772;8.846;2022-09-27T00:41:50;11.70;99.90
254;DHT22;590;48.772;8.846;2022-09-27T00:47:37;11.70;99.90
254;DHT22;590;48.772;8.846;2022-09-27T00:50:13;11.70;99.90
254;DHT22;590;48.772;8.846;2022-09-27T00:52:47;11.70;99.90
254;DHT22;590;48.772;8.846;2022-09-27T00:55:24;11.70;99.90
254;DHT22;590;48.772;8.846;2022-09-27T00:57:54;11.70;99.90
254;DHT22;590;48.772;8.846;2022-09-27T01:00:23;11.70;99.90
254;DHT22;590;48.772;8.846;2022-09-27T01:02:54;11.70;99.90
254;DHT22;590;48.772;8.846;2022-09-27T01:05:26;11.70;99.90
254;DHT22;590;48.772;8.846;2022-09-27T01:07:54;11.70;99.90
254;DHT22;590;48.772;8.846;2022-09-27T01:10:29;11.70;99.90
254;DHT22;590;48.772;8.846;2022-09-27T01:13:06;11.70;99.90
254;DHT22;590;48.772;8.846;2022-09-27T01:15:40;11.70;99.90
254;DHT22;590;48.772;8.846;2022-09-27T01:18:19;11.70;99.90
254;DHT22;590;48.772;8.846;2022-09-27T01:24:36;11.70;99.90
254;DHT22;590;48.772;8.846;2022-09-27T01:30:19;11.60;99.90
254;DHT22;590;48.772;8.846;2022-09-27T01:32:52;11.60;99.90
254;DHT22;590;48.772;8.846;2022-09-27T01:35:28;11.50;99.90
254;DHT22;590;48.772;8.846;2022-09-27T01:38:05;11.50;99.90
254;DHT22;590;48.772;8.846;2022-09-27T01:40:40;11.60;99.90
254;DHT22;590;48.772;8.846;2022-09-27T01:43:13;11.50;99.90
254;DHT22;590;48.772;8.846;2022-09-27T01:45:50;11.60;99.90
254;DHT22;590;48.772;8.846;2022-09-27T01:48:22;11.60;99.90
254;DHT22;590;48.772;8.846;2022-09-27T01:50:54;11.50;99.90
254;DHT22;590;48.772;8.846;2022-09-27T01:53:27;11.50;99.90
254;DHT22;590;48.772;8.846;2022-09-27T01:56:00;11.50;99.90
254;DHT22;590;48.772;8.846;2022-09-27T01:58:33;11.50;99.90
254;DHT22;590;48.772;8.846;2022-09-27T02:01:05;11.50;99.90
254;DHT22;590;48.772;8.846;2022-09-27T02:03:36;11.50;99.90
254;DHT22;590;48.772;8.846;2022-09-27T02:06:11;11.50;99.90
254;DHT22;590;48.772;8.846;2022-09-27T02:08:43;11.40;99.90
254;DHT22;590;48.772;8.846;2022-09-27T02:11:14;11.40;99.90
254;DHT22;590;48.772;8.846;2022-09-27T02:13:46;11.30;99.90
254;DHT22;590;48.772;8.846;2022-09-27T02:16:21;11.20;99.90
254;DHT22;590;48.772;8.846;2022-09-27T02:18:57;11.10;99.90
254;DHT22;590;48.772;8.846;2022-09-27T02:21:36;11.10;99.90
254;DHT22;590;48.772;8.846;2022-09-27T02:24:09;11.00;99.90
254;DHT22;590;48.772;8.846;2022-09-27T02:26:42;10.90;99.90
254;DHT22;590;48.772;8.846;2022-09-27T02:29:14;10.90;99.90
254;DHT22;590;48.772;8.846;2022-09-27T02:31:45;10.80;99.90
254;DHT22;590;48.772;8.846;2022-09-27T02:34:18;10.80;99.90
254;DHT22;590;48.772;8.846;2022-09-27T02:36:47;10.80;99.90
254;DHT22;590;48.772;8.846;2022-09-27T02:39:16;10.70;99.90
254;DHT22;590;48.772;8.846;2022-09-27T02:41:44;10.70;99.90
254;DHT22;590;48.772;8.846;2022-09-27T02:44:14;10.70;99.90
254;DHT22;590;48.772;8.846;2022-09-27T02:47:17;10.70;99.90
254;DHT22;590;48.772;8.846;2022-09-27T02:49:59;10.70;99.90
254;DHT22;590;48.772;8.846;2022-09-27T02:52:39;10.60;99.90
254;DHT22;590;48.772;8.846;2022-09-27T02:55:13;10.60;99.90
254;DHT22;590;48.772;8.846;2022-09-27T02:57:55;10.60;99.90
254;DHT22;590;48.772;8.846;2022-09-27T03:00:29;10.60;99.90
254;DHT22;590;48.772;8.846;2022-09-27T03:03:06;10.60;99.90
254;DHT22;590;48.772;8.846;2022-09-27T03:05:39;10.60;99.90
254;DHT22;590;48.772;8.846;2022-09-27T03:08:09;10.60;99.90
254;DHT22;590;48.772;8.846;2022-09-27T03:10:37;10.60;99.90
254;DHT22;590;48.772;8.846;2022-09-27T03:13:07;10.60;99.90
254;DHT22;590;48.772;8.846;2022-09-27T03:15:35;10.60;99.90
254;DHT22;590;48.772;8.846;2022-09-27T03:18:05;10.60;99.90
254;DHT22;590;48.772;8.846;2022-09-27T03:20:33;10.60;99.90
254;DHT22;590;48.772;8.846;2022-09-27T03:23:01;10.60;99.90
254;DHT22;590;48.772;8.846;2022-09-27T03:25:29;10.60;99.90
254;DHT22;590;48.772;8.846;2022-09-27T03:27:57;10.60;99.90
254;DHT22;590;48.772;8.846;2022-09-27T03:30:24;10.60;99.90
254;DHT22;590;48.772;8.846;2022-09-27T03:32:52;10.60;99.90
254;DHT22;590;48.772;8.846;2022-09-27T03:35:22;10.70;99.90
254;DHT22;590;48.772;8.846;2022-09-27T03:37:50;10.70;99.90
254;DHT22;590;48.772;8.846;2022-09-27T03:40:18;10.70;99.90
254;DHT22;590;48.772;8.846;2022-09-27T03:42:46;10.70;99.90
254;DHT22;590;48.772;8.846;2022-09-27T03:45:18;10.70;99.90
254;DHT22;590;48.772;8.846;2022-09-27T03:47:46;10.80;99.90
254;DHT22;590;48.772;8.846;2022-09-27T03:50:14;10.70;99.90
254;DHT22;590;48.772;8.846;2022-09-27T03:52:44;10.70;99.90
254;DHT22;590;48.772;8.846;2022-09-27T03:55:12;10.80;99.90
254;DHT22;590;48.772;8.846;2022-09-27T03:57:44;10.70;99.90
254;DHT22;590;48.772;8.846;2022-09-27T04:00:13;10.70;99.90
254;DHT22;590;48.772;8.846;2022-09-27T04:02:41;10.70;99.90
254;DHT22;590;48.772;8.846;2022-09-27T04:05:10;10.70;99.90
254;DHT22;590;48.772;8.846;2022-09-27T04:07:38;10.70;99.90
254;DHT22;590;48.772;8.846;2022-09-27T04:10:07;10.70;99.90
254;DHT22;590;48.772;8.846;2022-09-27T04:12:37;10.70;99.90
254;DHT22;590;48.772;8.846;2022-09-27T04:15:06;10.70;99.90
254;DHT22;590;48.772;8.846;2022-09-27T04:17:35;10.70;99.90
254;DHT22;590;48.772;8.846;2022-09-27T04:20:03;10.70;99.90
254;DHT22;590;48.772;8.846;2022-09-27T04:22:31;10.70;99.90
254;DHT22;590;48.772;8.846;2022-09-27T04:24:59;10.70;99.90
254;DHT22;590;48.772;8.846;2022-09-27T04:27:28;10.70;99.90
254;DHT22;590;48.772;8.846;2022-09-27T04:29:56;10.70;99.90
254;DHT22;590;48.772;8.846;2022-09-27T04:32:25;10.70;99.90
254;DHT22;590;48.772;8.846;2022-09-27T04:34:53;10.80;99.90
254;DHT22;590;48.772;8.846;2022-09-27T04:37:38;10.70;99.90
254;DHT22;590;48.772;8.846;2022-09-27T04:40:08;10.70;99.90
254;DHT22;590;48.772;8.846;2022-09-27T04:42:37;10.70;99.90
254;DHT22;590;48.772;8.846;2022-09-27T04:45:06;10.70;99.90
254;DHT22;590;48.772;8.846;2022-09-27T04:47:34;10.70;99.90
254;DHT22;590;48.772;8.846;2022-09-27T04:50:02;10.70;99.90
254;DHT22;590;48.772;8.846;2022-09-27T04:52:30;10.60;99.90
254;DHT22;590;48.772;8.846;2022-09-27T04:54:58;10.60;99.90
254;DHT22;590;48.772;8.846;2022-09-27T04:57:26;10.60;99.90
254;DHT22;590;48.772;8.846;2022-09-27T04:59:55;10.60;99.90
254;DHT22;590;48.772;8.846;2022-09-27T05:02:26;10.60;99.90
254;DHT22;590;48.772;8.846;2022-09-27T05:04:54;10.60;99.90
254;DHT22;590;48.772;8.846;2022-09-27T05:07:25;10.60;99.90
254;DHT22;590;48.772;8.846;2022-09-27T05:09:54;10.50;99.90
254;DHT22;590;48.772;8.846;2022-09-27T05:12:22;10.50;99.90
254;DHT22;590;48.772;8.846;2022-09-27T05:14:52;10.60;99.90
254;DHT22;590;48.772;8.846;2022-09-27T05:17:21;10.50;99.90
254;DHT22;590;48.772;8.846;2022-09-27T05:19:49;10.60;99.90
254;DHT22;590;48.772;8.846;2022-09-27T05:22:17;10.60;99.90
254;DHT22;590;48.772;8.846;2022-09-27T05:24:46;10.50;99.90
254;DHT22;590;48.772;8.846;2022-09-27T05:27:15;10.50;99.90
254;DHT22;590;48.772;8.846;2022-09-27T05:29:46;10.50;99.90
254;DHT22;590;48.772;8.846;2022-09-27T05:32:14;10.60;99.90
254;DHT22;590;48.772;8.846;2022-09-27T05:34:44;10.50;99.90
254;DHT22;590;48.772;8.846;2022-09-27T05:37:12;10.50;99.90
254;DHT22;590;48.772;8.846;2022-09-27T05:39:40;10.50;99.90
254;DHT22;590;48.772;8.846;2022-09-27T05:42:08;10.60;99.90
254;DHT22;590;48.772;8.846;2022-09-27T05:44:37;10.60;99.90
254;DHT22;590;48.772;8.846;2022-09-27T05:47:06;10.50;99.90
254;DHT22;590;48.772;8.846;2022-09-27T05:49:34;10.50;99.90
254;DHT22;590;48.772;8.846;2022-09-27T05:52:04;10.50;99.90
254;DHT22;590;48.772;8.846;2022-09-27T05:54:32;10.50;99.90
254;DHT22;590;48.772;8.846;2022-09-27T05:57:00;10.50;99.90
254;DHT22;590;48.772;8.846;2022-09-27T05:59:28;10.50;99.90
254;DHT22;590;48.772;8.846;2022-09-27T06:01:56;10.50;99.90
254;DHT22;590;48.772;8.846;2022-09-27T06:04:24;10.50;99.90
254;DHT22;590;48.772;8.846;2022-09-27T06:06:52;10.50;99.90
254;DHT22;590;48.772;8.846;2022-09-27T06:09:21;10.50;99.90
254;DHT22;590;48.772;8.846;2022-09-27T06:11:50;10.50;99.90
254;DHT22;590;48.772;8.846;2022-09-27T06:14:17;10.50;99.90
254;DHT22;590;48.772;8.846;2022-09-27T06:16:46;10.60;99.90
254;DHT22;590;48.772;8.846;2022-09-27T06:19:14;10.50;99.90
254;DHT22;590;48.772;8.846;2022-09-27T06:21:43;10.50;99.90
254;DHT22;590;48.772;8.846;2022-09-27T06:24:11;10.60;99.90
254;DHT22;590;48.772;8.846;2022-09-27T06:26:40;10.60;99.90
254;DHT22;590;48.772;8.846;2022-09-27T06:29:08;10.60;99.90
254;DHT22;590;48.772;8.846;2022-09-27T06:31:36;10.60;99.90
254;DHT22;590;48.772;8.846;2022-09-27T06:34:04;10.60;99.90
254;DHT22;590;48.772;8.846;2022-09-27T06:36:33;10.70;99.90
254;DHT22;590;48.772;8.846;2022-09-27T06:39:02;10.70;99.90
254;DHT22;590;48.772;8.846;2022-09-27T06:41:30;10.80;99.90
254;DHT22;590;48.772;8.846;2022-09-27T06:44:00;10.70;99.90
254;DHT22;590;48.772;8.846;2022-09-27T06:46:28;10.80;99.90
254;DHT22;590;48.772;8.846;2022-09-27T06:48:56;10.80;99.90
254;DHT22;590;48.772;8.846;2022-09-27T06:51:24;10.80;99.90
254;DHT22;590;48.772;8.846;2022-09-27T06:53:52;10.90;99.90
254;DHT22;590;48.772;8.846;2022-09-27T06:56:20;10.90;99.90
254;DHT22;590;48.772;8.846;2022-09-27T06:58:48;11.00;99.90
254;DHT22;590;48.772;8.846;2022-09-27T07:01:34;11.10;99.90
254;DHT22;590;48.772;8.846;2022-09-27T07:04:03;11.10;99.90
254;DHT22;590;48.772;8.846;2022-09-27T07:06:32;11.10;99.90
254;DHT22;590;48.772;8.846;2022-09-27T07:09:00;11.20;99.90
254;DHT22;590;48.772;8.846;2022-09-27T07:11:28;11.30;99.90
254;DHT22;590;48.772;8.846;2022-09-27T07:13:56;11.30;99.90
254;DHT22;590;48.772;8.846;2022-09-27T07:16:25;11.40;99.90
254;DHT22;590;48.772;8.846;2022-09-27T07:18:54;11.30;99.90
254;DHT22;590;48.772;8.846;2022-09-27T07:21:22;11.40;99.90
254;DHT22;590;48.772;8.846;2022-09-27T07:23:50;11.40;99.90
254;DHT22;590;48.772;8.846;2022-09-27T07:26:18;11.40;99.90
254;DHT22;590;48.772;8.846;2022-09-27T07:28:46;11.30;99.90
254;DHT22;590;48.772;8.846;2022-09-27T07:31:14;11.30;99.90
254;DHT22;590;48.772;8.846;2022-09-27T07:33:42;11.30;99.90
254;DHT22;590;48.772;8.846;2022-09-27T07:36:12;11.30;99.90
254;DHT22;590;48.772;8.846;2022-09-27T07:38:40;11.30;99.90
254;DHT22;590;48.772;8.846;2022-09-27T07:41:10;11.30;99.90
254;DHT22;590;48.772;8.846;2022-09-27T07:43:39;11.50;99.90
254;DHT22;590;48.772;8.846;2022-09-27T07:46:07;11.60;99.90
254;DHT22;590;48.772;8.846;2022-09-27T07:48:36;11.70;99.90
254;DHT22;590;48.772;8.846;2022-09-27T07:51:04;11.80;99.90
254;DHT22;590;48.772;8.846;2022-09-27T07:53:35;11.80;99.90
254;DHT22;590;48.772;8.846;2022-09-27T07:56:03;11.90;99.90
254;DHT22;590;48.772;8.846;2022-09-27T07:58:31;12.00;99.90
254;DHT22;590;48.772;8.846;2022-09-27T08:00:59;12.00;99.90
254;DHT22;590;48.772;8.846;2022-09-27T08:03:28;12.10;99.90
254;DHT22;590;48.772;8.846;2022-09-27T08:06:01;12.30;99.90
254;DHT22;590;48.772;8.846;2022-09-27T08:08:29;12.50;99.90
254;DHT22;590;48.772;8.846;2022-09-27T08:10:59;12.60;99.90
254;DHT22;590;48.772;8.846;2022-09-27T08:13:27;12.70;98.90
254;DHT22;590;48.772;8.846;2022-09-27T08:16:00;12.70;97.70
254;DHT22;590;48.772;8.846;2022-09-27T08:18:28;12.70;96.20
254;DHT22;590;48.772;8.846;2022-09-27T08:20:56;12.60;94.50
254;DHT22;590;48.772;8.846;2022-09-27T08:23:24;12.40;95.00
254;DHT22;590;48.772;8.846;2022-09-27T08:25:52;12.30;96.00
254;DHT22;590;48.772;8.846;2022-09-27T08:28:22;12.30;96.00
254;DHT22;590;48.772;8.846;2022-09-27T08:30:50;12.20;97.00
254;DHT22;590;48.772;8.846;2022-09-27T08:33:18;12.30;97.00
254;DHT22;590;48.772;8.846;2022-09-27T08:35:46;12.30;97.40
254;DHT22;590;48.772;8.846;2022-09-27T08:38:13;12.40;97.50
254;DHT22;590;48.772;8.846;2022-09-27T08:40:50;12.50;97.80
254;DHT22;590;48.772;8.846;2022-09-27T08:43:30;12.50;97.40
254;DHT22;590;48.772;8.846;2022-09-27T08:46:06;12.40;96.70
254;DHT22;590;48.772;8.846;2022-09-27T08:48:38;12.40;97.40
254;DHT22;590;48.772;8.846;2022-09-27T08:51:11;12.30;97.80
254;DHT22;590;48.772;8.846;2022-09-27T08:53:44;12.30;97.50
254;DHT22;590;48.772;8.846;2022-09-27T08:56:15;12.30;97.60
254;DHT22;590;48.772;8.846;2022-09-27T08:58:51;12.30;98.20
254;DHT22;590;48.772;8.846;2022-09-27T09:01:19;12.40;98.10
254;DHT22;590;48.772;8.846;2022-09-27T09:03:57;12.50;96.10
254;DHT22;590;48.772;8.846;2022-09-27T09:06:27;12.60;95.00
254;DHT22;590;48.772;8.846;2022-09-27T09:09:02;12.70;95.00
254;DHT22;590;48.772;8.846;2022-09-27T09:11:47;12.80;94.70
254;DHT22;590;48.772;8.846;2022-09-27T09:15:06;13.00;90.60
254;DHT22;590;48.772;8.846;2022-09-27T09:17:51;13.10;90.20
254;DHT22;590;48.772;8.846;2022-09-27T09:20:34;13.30;90.20
254;DHT22;590;48.772;8.846;2022-09-27T09:23:33;13.50;90.70
254;DHT22;590;48.772;8.846;2022-09-27T09:26:10;13.70;88.50
254;DHT22;590;48.772;8.846;2022-09-27T09:28:53;13.90;89.00
254;DHT22;590;48.772;8.846;2022-09-27T09:31:30;14.00;88.70
254;DHT22;590;48.772;8.846;2022-09-27T09:34:06;14.30;87.00
254;DHT22;590;48.772;8.846;2022-09-27T09:36:42;14.50;85.30
254;DHT22;590;48.772;8.846;2022-09-27T09:39:14;14.70;80.30
254;DHT22;590;48.772;8.846;2022-09-27T09:42:01;14.90;77.10
254;DHT22;590;48.772;8.846;2022-09-27T09:44:38;15.10;77.00
254;DHT22;590;48.772;8.846;2022-09-27T09:47:14;15.30;72.80
254;DHT22;590;48.772;8.846;2022-09-27T09:49:49;15.50;70.40
254;DHT22;590;48.772;8.846;2022-09-27T09:52:20;15.70;66.70
254;DHT22;590;48.772;8.846;2022-09-27T09:54:52;15.80;67.40
254;DHT22;590;48.772;8.846;2022-09-27T09:57:26;16.10;65.60
254;DHT22;590;48.772;8.846;2022-09-27T09:59:58;16.30;63.10
254;DHT22;590;48.772;8.846;2022-09-27T10:02:33;16.40;57.30
254;DHT22;590;48.772;8.846;2022-09-27T10:05:02;16.30;56.30
254;DHT22;590;48.772;8.846;2022-09-27T10:07:35;16.20;51.60
254;DHT22;590;48.772;8.846;2022-09-27T10:10:05;16.10;51.00
254;DHT22;590;48.772;8.846;2022-09-27T10:12:34;15.90;51.70
254;DHT22;590;48.772;8.846;2022-09-27T10:15:04;15.70;53.10
254;DHT22;590;48.772;8.846;2022-09-27T10:17:36;15.60;56.30
254;DHT22;590;48.772;8.846;2022-09-27T10:20:06;15.50;55.90
254;DHT22;590;48.772;8.846;2022-09-27T10:22:36;15.50;56.60
254;DHT22;590;48.772;8.846;2022-09-27T10:25:06;15.50;56.10
254;DHT22;590;48.772;8.846;2022-09-27T10:27:38;15.60;54.60
254;DHT22;590;48.772;8.846;2022-09-27T10:30:26;15.70;55.20
254;DHT22;590;48.772;8.846;2022-09-27T10:32:58;15.70;53.70
254;DHT22;590;48.772;8.846;2022-09-27T10:35:35;15.80;53.80
254;DHT22;590;48.772;8.846;2022-09-27T10:38:25;16.00;55.50
254;DHT22;590;48.772;8.846;2022-09-27T10:40:54;16.00;51.90
254;DHT22;590;48.772;8.846;2022-09-27T10:43:28;16.00;52.30
254;DHT22;590;48.772;8.846;2022-09-27T10:46:05;16.00;46.80
254;DHT22;590;48.772;8.846;2022-09-27T10:48:39;15.90;43.50
254;DHT22;590;48.772;8.846;2022-09-27T10:51:22;15.60;44.10
254;DHT22;590;48.772;8.846;2022-09-27T10:53:51;15.50;47.00
254;DHT22;590;48.772;8.846;2022-09-27T10:56:22;15.50;51.70
254;DHT22;590;48.772;8.846;2022-09-27T10:58:51;15.70;51.40
254;DHT22;590;48.772;8.846;2022-09-27T11:01:19;15.90;48.20
254;DHT22;590;48.772;8.846;2022-09-27T11:03:50;16.00;47.90
254;DHT22;590;48.772;8.846;2022-09-27T11:06:30;16.10;45.20
254;DHT22;590;48.772;8.846;2022-09-27T11:09:16;16.10;44.80
254;DHT22;590;48.772;8.846;2022-09-27T11:11:45;16.10;43.20
254;DHT22;590;48.772;8.846;2022-09-27T11:14:19;15.90;44.90
254;DHT22;590;48.772;8.846;2022-09-27T11:16:54;15.80;45.40
254;DHT22;590;48.772;8.846;2022-09-27T11:19:37;15.60;45.90
254;DHT22;590;48.772;8.846;2022-09-27T11:22:22;15.50;48.10
254;DHT22;590;48.772;8.846;2022-09-27T11:25:09;15.60;48.70
254;DHT22;590;48.772;8.846;2022-09-27T11:27:50;15.70;50.50
254;DHT22;590;48.772;8.846;2022-09-27T11:30:23;16.00;52.30
254;DHT22;590;48.772;8.846;2022-09-27T11:33:07;16.10;48.70
254;DHT22;590;48.772;8.846;2022-09-27T11:35:48;16.10;47.30
254;DHT22;590;48.772;8.846;2022-09-27T11:38:24;16.00;46.80
254;DHT22;590;48.772;8.846;2022-09-27T11:41:26;15.90;45.90
254;DHT22;590;48.772;8.846;2022-09-27T11:44:14;15.80;48.00
254;DHT22;590;48.772;8.846;2022-09-27T11:46:49;15.70;50.50
254;DHT22;590;48.772;8.846;2022-09-27T11:52:21;15.30;49.40
254;DHT22;590;48.772;8.846;2022-09-27T11:57:50;14.70;55.20
254;DHT22;590;48.772;8.846;2022-09-27T12:00:21;14.30;61.60
254;DHT22;590;48.772;8.846;2022-09-27T12:03:23;13.80;63.40
254;DHT22;590;48.772;8.846;2022-09-27T12:06:02;13.50;67.40
254;DHT22;590;48.772;8.846;2022-09-27T12:08:52;13.20;71.50
254;DHT22;590;48.772;8.846;2022-09-27T12:11:25;12.90;76.60
254;DHT22;590;48.772;8.846;2022-09-27T12:13:57;12.60;77.40
254;DHT22;590;48.772;8.846;2022-09-27T12:16:27;12.50;85.40
254;DHT22;590;48.772;8.846;2022-09-27T12:18:58;12.40;90.50
254;DHT22;590;48.772;8.846;2022-09-27T12:21:29;12.50;90.70
254;DHT22;590;48.772;8.846;2022-09-27T12:24:00;12.50;87.90
254;DHT22;590;48.772;8.846;2022-09-27T12:26:34;12.30;87.30
254;DHT22;590;48.772;8.846;2022-09-27T12:29:10;12.20;88.80
254;DHT22;590;48.772;8.846;2022-09-27T12:31:43;12.10;91.70
254;DHT22;590;48.772;8.846;2022-09-27T12:34:15;12.00;92.60
254;DHT22;590;48.772;8.846;2022-09-27T12:36:49;12.00;94.20
254;DHT22;590;48.772;8.846;2022-09-27T12:39:22;11.90;94.30
254;DHT22;590;48.772;8.846;2022-09-27T12:41:54;11.80;94.30
254;DHT22;590;48.772;8.846;2022-09-27T12:44:28;11.90;96.40
254;DHT22;590;48.772;8.846;2022-09-27T12:47:05;12.00;99.00
254;DHT22;590;48.772;8.846;2022-09-27T12:49:42;12.00;99.30
254;DHT22;590;48.772;8.846;2022-09-27T12:52:18;12.00;96.50
254;DHT22;590;48.772;8.846;2022-09-27T12:55:05;12.00;96.70
254;DHT22;590;48.772;8.846;2022-09-27T12:57:43;12.10;97.90
254;DHT22;590;48.772;8.846;2022-09-27T13:00:18;12.20;99.10
254;DHT22;590;48.772;8.846;2022-09-27T13:06:08;12.20;99.20
254;DHT22;590;48.772;8.846;2022-09-27T13:08:53;12.10;99.30
254;DHT22;590;48.772;8.846;2022-09-27T13:11:29;11.90;97.70
254;DHT22;590;48.772;8.846;2022-09-27T13:14:05;11.80;99.00
254;DHT22;590;48.772;8.846;2022-09-27T13:16:41;11.80;99.90
254;DHT22;590;48.772;8.846;2022-09-27T13:19:37;12.00;99.90
254;DHT22;590;48.772;8.846;2022-09-27T13:22:06;12.30;99.90
254;DHT22;590;48.772;8.846;2022-09-27T13:24:48;12.60;99.90
254;DHT22;590;48.772;8.846;2022-09-27T13:27:37;12.80;97.50
254;DHT22;590;48.772;8.846;2022-09-27T13:33:41;12.70;92.10
254;DHT22;590;48.772;8.846;2022-09-27T13:36:28;12.40;94.20
254;DHT22;590;48.772;8.846;2022-09-27T13:39:04;12.30;94.20
254;DHT22;590;48.772;8.846;2022-09-27T13:41:50;12.10;94.70
254;DHT22;590;48.772;8.846;2022-09-27T13:44:25;11.90;95.30
254;DHT22;590;48.772;8.846;2022-09-27T13:46:59;11.80;97.70
254;DHT22;590;48.772;8.846;2022-09-27T13:49:31;11.70;96.20
254;DHT22;590;48.772;8.846;2022-09-27T13:52:13;11.60;97.50
254;DHT22;590;48.772;8.846;2022-09-27T13:54:50;11.50;99.00
254;DHT22;590;48.772;8.846;2022-09-27T13:57:41;11.50;99.90
254;DHT22;590;48.772;8.846;2022-09-27T14:00:13;11.60;99.90
254;DHT22;590;48.772;8.846;2022-09-27T14:02:50;11.60;99.90
254;DHT22;590;48.772;8.846;2022-09-27T14:05:25;11.60;99.90
254;DHT22;590;48.772;8.846;2022-09-27T14:07:54;11.60;99.90
254;DHT22;590;48.772;8.846;2022-09-27T14:10:26;11.80;99.90
254;DHT22;590;48.772;8.846;2022-09-27T14:12:58;11.90;99.90
254;DHT22;590;48.772;8.846;2022-09-27T14:15:30;12.10;99.90
254;DHT22;590;48.772;8.846;2022-09-27T14:17:58;12.30;99.90
254;DHT22;590;48.772;8.846;2022-09-27T14:20:32;12.50;99.90
254;DHT22;590;48.772;8.846;2022-09-27T14:23:01;12.50;99.90
254;DHT22;590;48.772;8.846;2022-09-27T14:25:30;12.60;99.90
254;DHT22;590;48.772;8.846;2022-09-27T14:27:58;12.60;99.90
254;DHT22;590;48.772;8.846;2022-09-27T14:30:29;12.70;99.90
254;DHT22;590;48.772;8.846;2022-09-27T14:32:57;12.80;99.90
254;DHT22;590;48.772;8.846;2022-09-27T14:35:28;13.00;99.90
254;DHT22;590;48.772;8.846;2022-09-27T14:38:15;13.20;99.90
254;DHT22;590;48.772;8.846;2022-09-27T14:41:04;13.30;99.90
254;DHT22;590;48.772;8.846;2022-09-27T14:43:34;13.30;94.90
254;DHT22;590;48.772;8.846;2022-09-27T14:46:05;13.20;95.30
254;DHT22;590;48.772;8.846;2022-09-27T14:48:35;13.20;94.90
254;DHT22;590;48.772;8.846;2022-09-27T14:51:18;13.10;91.70
254;DHT22;590;48.772;8.846;2022-09-27T14:53:48;13.10;89.90
254;DHT22;590;48.772;8.846;2022-09-27T14:56:19;13.00;89.40
254;DHT22;590;48.772;8.846;2022-09-27T14:58:51;12.90;86.10
254;DHT22;590;48.772;8.846;2022-09-27T15:01:23;12.80;83.90
254;DHT22;590;48.772;8.846;2022-09-27T15:03:52;12.70;83.60
254;DHT22;590;48.772;8.846;2022-09-27T15:06:20;12.70;84.40
254;DHT22;590;48.772;8.846;2022-09-27T15:08:50;12.80;83.40
254;DHT22;590;48.772;8.846;2022-09-27T15:11:19;12.80;84.40
254;DHT22;590;48.772;8.846;2022-09-27T15:13:50;13.00;82.80
254;DHT22;590;48.772;8.846;2022-09-27T15:16:21;13.00;79.90
254;DHT22;590;48.772;8.846;2022-09-27T15:18:58;13.10;77.90
254;DHT22;590;48.772;8.846;2022-09-27T15:21:31;13.10;77.40
254;DHT22;590;48.772;8.846;2022-09-27T15:24:00;13.00;74.20
254;DHT22;590;48.772;8.846;2022-09-27T15:26:35;13.00;74.20
254;DHT22;590;48.772;8.846;2022-09-27T15:29:04;12.90;73.80
254;DHT22;590;48.772;8.846;2022-09-27T15:31:34;12.80;73.90
254;DHT22;590;48.772;8.846;2022-09-27T15:34:04;12.70;73.70
254;DHT22;590;48.772;8.846;2022-09-27T15:36:53;12.70;74.60
254;DHT22;590;48.772;8.846;2022-09-27T15:39:27;12.70;74.70
254;DHT22;590;48.772;8.846;2022-09-27T15:42:06;12.70;74.50
254;DHT22;590;48.772;8.846;2022-09-27T15:44:47;12.70;72.70
254;DHT22;590;48.772;8.846;2022-09-27T15:47:41;12.60;73.30
254;DHT22;590;48.772;8.846;2022-09-27T15:50:35;12.60;74.00
254;DHT22;590;48.772;8.846;2022-09-27T15:53:04;12.60;74.20
254;DHT22;590;48.772;8.846;2022-09-27T15:55:34;12.50;74.40
254;DHT22;590;48.772;8.846;2022-09-27T15:58:09;12.50;74.50
254;DHT22;590;48.772;8.846;2022-09-27T16:00:50;12.50;75.20
254;DHT22;590;48.772;8.846;2022-09-27T16:03:18;12.50;73.90
254;DHT22;590;48.772;8.846;2022-09-27T16:05:47;12.50;73.10
254;DHT22;590;48.772;8.846;2022-09-27T16:08:15;12.50;70.90
254;DHT22;590;48.772;8.846;2022-09-27T16:10:45;12.40;71.20
254;DHT22;590;48.772;8.846;2022-09-27T16:13:15;12.40;71.00
254;DHT22;590;48.772;8.846;2022-09-27T16:15:43;12.20;70.30
254;DHT22;590;48.772;8.846;2022-09-27T16:18:12;12.20;70.90
254;DHT22;590;48.772;8.846;2022-09-27T16:20:40;12.10;71.00
254;DHT22;590;48.772;8.846;2022-09-27T16:23:10;12.00;71.00
254;DHT22;590;48.772;8.846;2022-09-27T16:25:38;12.00;71.90
254;DHT22;590;48.772;8.846;2022-09-27T16:28:06;11.90;71.50
254;DHT22;590;48.772;8.846;2022-09-27T16:30:35;11.90;71.80
254;DHT22;590;48.772;8.846;2022-09-27T16:33:03;11.80;73.50
254;DHT22;590;48.772;8.846;2022-09-27T16:35:31;11.90;72.50
254;DHT22;590;48.772;8.846;2022-09-27T16:37:59;11.90;72.40
254;DHT22;590;48.772;8.846;2022-09-27T16:40:28;11.90;72.40
254;DHT22;590;48.772;8.846;2022-09-27T16:42:56;11.80;74.10
254;DHT22;590;48.772;8.846;2022-09-27T16:45:24;11.80;73.70
254;DHT22;590;48.772;8.846;2022-09-27T16:47:59;11.80;74.00
254;DHT22;590;48.772;8.846;2022-09-27T16:50:27;11.70;75.00
254;DHT22;590;48.772;8.846;2022-09-27T16:53:12;11.70;78.40
254;DHT22;590;48.772;8.846;2022-09-27T16:55:43;11.60;79.60
254;DHT22;590;48.772;8.846;2022-09-27T16:58:11;11.60;79.20
254;DHT22;590;48.772;8.846;2022-09-27T17:00:39;11.50;78.80
254;DHT22;590;48.772;8.846;2022-09-27T17:03:07;11.50;78.50
254;DHT22;590;48.772;8.846;2022-09-27T17:05:35;11.50;80.30
254;DHT22;590;48.772;8.846;2022-09-27T17:08:04;11.50;81.90
254;DHT22;590;48.772;8.846;2022-09-27T17:10:31;11.50;80.30
254;DHT22;590;48.772;8.846;2022-09-27T17:13:02;11.40;78.00
254;DHT22;590;48.772;8.846;2022-09-27T17:15:30;11.40;78.30
254;DHT22;590;48.772;8.846;2022-09-27T17:17:58;11.40;77.80
254;DHT22;590;48.772;8.846;2022-09-27T17:20:26;11.40;78.00
254;DHT22;590;48.772;8.846;2022-09-27T17:22:55;11.30;78.10
254;DHT22;590;48.772;8.846;2022-09-27T17:25:22;11.30;78.10
254;DHT22;590;48.772;8.846;2022-09-27T17:27:50;11.30;77.90
254;DHT22;590;48.772;8.846;2022-09-27T17:30:20;11.30;78.30
254;DHT22;590;48.772;8.846;2022-09-27T17:32:48;11.30;77.70